Terminal Aerodrome Forecast
Issued by NWS

Home | Current Version | Previous Version | Text Only | Print | Product List | Glossary On
Versions: 1 2 3 4 5 6 7 8 9 10 11 12 13 14 15 16 17 18 19 20
000
FTUS43 KGRB 291200 AAA
TAFATW
TAF AMD
KATW 291254Z 2913/3012 32011KT P6SM SCT012 OVC030
      TEMPO 2913/2914 4SM -FZDZSN SCT004 OVC012
     FM291400 32011G15KT 6SM BR FEW010 OVC015
     FM291700 32016G26KT P6SM BKN025 BKN040
     FM300000 32015G24KT P6SM SCT025 BKN050
     FM300600 32012G18KT P6SM SCT100=

USA.gov is the U.S. government's official web portal to all federal, state and local government web resources and services.